createdAt,value
2018-07-21T00:00:37.329Z,45.23
2018-07-21T00:03:06.886Z,45.65
2018-07-21T00:05:38.103Z,45.19
2018-07-21T00:08:08.016Z,45.42
2018-07-21T00:10:38.959Z,45.88
2018-07-21T00:13:08.426Z,45.29
2018-07-21T00:15:38.206Z,46.00
2018-07-21T00:18:07.966Z,46.07
2018-07-21T00:20:37.779Z,45.78
2018-07-21T00:23:08.147Z,46.22
2018-07-21T00:25:38.319Z,46.42
2018-07-21T00:28:07.796Z,45.47
2018-07-21T00:30:37.343Z,45.55
2018-07-21T00:33:06.839Z,46.12
2018-07-21T00:35:36.622Z,46.99
2018-07-21T00:38:06.057Z,46.03
2018-07-21T00:40:36.304Z,46.06
2018-07-21T00:43:06.849Z,46.75
2018-07-21T00:45:37.128Z,46.94
2018-07-21T00:48:06.632Z,46.19
2018-07-21T00:50:36.353Z,46.28
2018-07-21T00:53:06.614Z,46.50
2018-07-21T00:55:36.435Z,47.13
2018-07-21T00:58:06.199Z,46.66
2018-07-21T01:00:36.336Z,46.46
2018-07-21T01:03:06.036Z,47.08
2018-07-21T01:05:35.987Z,46.82
2018-07-21T01:08:05.870Z,46.29
2018-07-21T01:10:37.161Z,47.41
2018-07-21T01:13:07.125Z,46.72
2018-07-21T01:15:37.293Z,47.28
2018-07-21T01:18:07.390Z,47.07
2018-07-21T01:20:37.109Z,47.06
2018-07-21T01:23:07.224Z,47.29
2018-07-21T01:25:36.718Z,46.76
2018-07-21T01:28:08.254Z,46.66
2018-07-21T01:30:38.081Z,46.67
2018-07-21T01:33:07.724Z,46.55
2018-07-21T01:35:37.420Z,47.25
2018-07-21T01:38:07.224Z,47.42
2018-07-21T01:40:37.033Z,47.38
2018-07-21T01:43:06.957Z,47.55
2018-07-21T01:45:37.934Z,46.60
2018-07-21T01:48:07.810Z,47.21
2018-07-21T01:50:38.062Z,47.50
2018-07-21T01:53:07.781Z,47.22
2018-07-21T01:55:37.284Z,47.40
2018-07-21T01:58:07.195Z,47.42
2018-07-21T02:00:36.641Z,47.43
2018-07-21T02:03:06.459Z,46.83
2018-07-21T02:05:37.161Z,46.70
2018-07-21T02:08:07.508Z,47.32
2018-07-21T02:10:37.796Z,47.40
2018-07-21T02:13:08.125Z,46.80
2018-07-21T02:15:37.994Z,47.56
2018-07-21T02:18:07.766Z,47.78
2018-07-21T02:20:37.857Z,47.22
2018-07-21T02:23:07.796Z,47.48
2018-07-21T02:25:37.745Z,47.67
2018-07-21T02:28:07.859Z,47.93
2018-07-21T02:30:37.675Z,48.14
2018-07-21T02:33:07.429Z,48.06
2018-07-21T02:35:37.692Z,47.47
2018-07-21T02:38:07.527Z,47.82
2018-07-21T02:40:37.399Z,48.39
2018-07-21T02:43:07.326Z,48.49
2018-07-21T02:45:37.341Z,48.33
2018-07-21T02:48:07.283Z,48.13
2018-07-21T02:50:38.025Z,48.13
2018-07-21T02:53:08.851Z,48.13
2018-07-21T02:55:39.915Z,47.94
2018-07-21T02:58:11.831Z,48.54
2018-07-21T03:00:41.850Z,48.53
2018-07-21T03:03:11.765Z,48.34
2018-07-21T03:05:42.020Z,48.23
2018-07-21T03:08:12.337Z,48.22
2018-07-21T03:10:43.426Z,48.12
2018-07-21T03:13:13.387Z,47.41
2018-07-21T03:15:43.548Z,47.35
2018-07-21T03:18:13.215Z,47.15
2018-07-21T03:20:43.020Z,47.28
2018-07-21T03:23:12.483Z,47.43
2018-07-21T03:25:42.345Z,46.93
2018-07-21T03:28:12.278Z,46.96
2018-07-21T03:30:42.191Z,47.75
2018-07-21T03:33:11.977Z,47.45
2018-07-21T03:35:41.923Z,47.77
2018-07-21T03:38:11.842Z,47.06
2018-07-21T03:40:41.537Z,47.28
2018-07-21T03:43:11.626Z,47.96
2018-07-21T03:45:41.222Z,47.00
2018-07-21T03:48:10.656Z,47.14
2018-07-21T03:50:41.053Z,47.91
2018-07-21T03:53:11.025Z,47.04
2018-07-21T03:55:40.742Z,46.90
2018-07-21T03:58:11.474Z,46.91
2018-07-21T04:00:41.044Z,46.85
2018-07-21T04:03:11.351Z,46.97
2018-07-21T04:05:41.172Z,47.15
2018-07-21T04:08:11.777Z,47.23
2018-07-21T04:10:48.452Z,46.96
2018-07-21T04:13:19.735Z,47.21
2018-07-21T04:15:49.490Z,46.77
2018-07-21T04:18:20.629Z,46.90
2018-07-21T04:20:50.508Z,47.36
2018-07-21T04:23:20.813Z,47.76
2018-07-21T04:25:50.813Z,47.72
2018-07-21T04:28:20.669Z,47.69
2018-07-21T04:30:50.826Z,48.85
2018-07-21T04:33:21.534Z,49.42
2018-07-21T04:35:52.107Z,48.59
2018-07-21T04:38:23.404Z,48.57
2018-07-21T04:40:54.143Z,48.31
2018-07-21T04:43:24.654Z,48.08
2018-07-21T04:45:54.412Z,47.79
2018-07-21T04:48:25.096Z,47.63
2018-07-21T04:50:55.053Z,47.57
2018-07-21T04:53:24.702Z,47.40
2018-07-21T04:55:54.606Z,47.06
2018-07-21T04:58:26.449Z,46.24
2018-07-21T05:00:57.358Z,46.63
2018-07-21T05:03:26.785Z,46.68
2018-07-21T05:05:56.280Z,45.97
2018-07-21T05:08:26.615Z,46.00
2018-07-21T05:10:56.421Z,45.59
2018-07-21T05:13:26.184Z,45.64
2018-07-21T05:15:55.826Z,45.89
2018-07-21T05:18:25.917Z,46.67
2018-07-21T05:20:56.045Z,46.22
2018-07-21T05:23:25.743Z,45.93
2018-07-21T05:25:56.262Z,47.66
2018-07-21T05:28:26.640Z,47.53
2018-07-21T05:30:56.927Z,48.00
2018-07-21T05:33:26.648Z,48.00
2018-07-21T05:35:56.647Z,47.90
2018-07-21T05:38:26.337Z,48.06
2018-07-21T05:40:56.233Z,47.28
2018-07-21T05:43:26.108Z,47.56
2018-07-21T05:45:56.023Z,47.22
2018-07-21T05:48:26.199Z,47.50
2018-07-21T05:50:57.788Z,46.95
2018-07-21T05:53:27.860Z,46.28
2018-07-21T05:55:58.573Z,46.07
2018-07-21T05:58:28.640Z,45.73
2018-07-21T06:00:58.376Z,46.36
2018-07-21T06:03:28.154Z,45.87
2018-07-21T06:05:58.054Z,45.64
2018-07-21T06:08:28.084Z,45.43
2018-07-21T06:10:57.597Z,44.93
2018-07-21T06:13:27.090Z,44.97
2018-07-21T06:15:56.534Z,44.53
2018-07-21T06:18:26.049Z,44.34
2018-07-21T06:20:55.508Z,44.04
2018-07-21T06:23:25.341Z,44.16
2018-07-21T06:25:55.659Z,44.42
2018-07-21T06:28:26.224Z,43.45
2018-07-21T06:30:56.557Z,43.51
2018-07-21T06:33:27.882Z,43.18
2018-07-21T06:35:57.851Z,43.29
2018-07-21T06:38:27.457Z,42.50
2018-07-21T06:40:57.646Z,42.96
2018-07-21T06:43:27.887Z,42.04
2018-07-21T06:45:57.404Z,41.36
2018-07-21T06:48:27.372Z,41.38
2018-07-21T06:50:56.857Z,41.17
2018-07-21T06:53:26.719Z,41.84
2018-07-21T06:55:56.249Z,41.50
2018-07-21T06:58:27.364Z,40.76
2018-07-21T07:00:57.494Z,40.98
2018-07-21T07:03:27.607Z,40.50
2018-07-21T07:05:57.987Z,40.92
2018-07-21T07:08:28.620Z,39.76
2018-07-21T07:10:58.494Z,40.63
2018-07-21T07:13:28.273Z,40.27
2018-07-21T07:15:58.002Z,39.41
2018-07-21T07:18:27.973Z,40.05
2018-07-21T07:21:00.073Z,39.02
2018-07-21T07:23:30.023Z,39.51
2018-07-21T07:25:59.974Z,38.59
2018-07-21T07:28:30.363Z,38.19
2018-07-21T07:31:00.621Z,38.84
2018-07-21T07:33:30.282Z,38.72
2018-07-21T07:36:00.749Z,38.64
2018-07-21T07:38:30.900Z,38.17
2018-07-21T07:41:00.887Z,37.79
2018-07-21T07:43:32.354Z,36.76
2018-07-21T07:46:01.867Z,36.54
2018-07-21T07:48:31.302Z,36.02
2018-07-21T07:51:02.121Z,35.91
2018-07-21T07:53:31.921Z,36.33
2018-07-21T07:56:01.990Z,36.12
2018-07-21T07:58:32.232Z,35.48
2018-07-21T08:01:02.333Z,35.30
2018-07-21T08:03:32.429Z,34.40
2018-07-21T08:06:02.252Z,34.55
2018-07-21T08:08:32.031Z,35.34
2018-07-21T08:11:01.939Z,34.72
2018-07-21T08:13:32.330Z,35.45
2018-07-21T08:16:02.610Z,34.72
2018-07-21T08:18:32.876Z,34.96
2018-07-21T08:21:03.060Z,35.19
2018-07-21T08:23:32.774Z,34.88
2018-07-21T08:26:02.446Z,34.93
2018-07-21T08:28:32.560Z,36.08
2018-07-21T08:31:02.655Z,35.90
2018-07-21T08:33:34.339Z,36.19
2018-07-21T08:36:05.621Z,36.66
2018-07-21T08:38:36.139Z,35.54
2018-07-21T08:41:06.131Z,36.09
2018-07-21T08:43:36.656Z,35.04
2018-07-21T08:46:07.113Z,35.74
2018-07-21T08:48:38.764Z,35.70
2018-07-21T08:51:09.608Z,34.78
2018-07-21T08:53:41.320Z,35.50
2018-07-21T08:56:14.819Z,35.58
2018-07-21T08:58:45.128Z,34.44
2018-07-21T09:01:17.678Z,34.93
2018-07-21T09:03:50.896Z,34.54
2018-07-21T09:06:23.188Z,33.14
2018-07-21T09:08:54.589Z,34.29
2018-07-21T09:11:24.159Z,33.00
2018-07-21T09:13:55.820Z,33.78
2018-07-21T09:16:27.208Z,32.29
2018-07-21T09:18:57.556Z,32.50
2018-07-21T09:21:29.700Z,32.53
2018-07-21T09:24:00.352Z,32.35
2018-07-21T09:26:30.049Z,32.56
2018-07-21T09:29:00.049Z,32.18
2018-07-21T09:31:30.978Z,31.66
2018-07-21T09:34:00.921Z,31.21
2018-07-21T09:36:30.605Z,31.17
2018-07-21T09:39:02.364Z,30.59
2018-07-21T09:41:32.461Z,31.03
2018-07-21T09:44:03.078Z,29.97
2018-07-21T09:46:33.162Z,29.87
2018-07-21T09:49:03.884Z,30.90
2018-07-21T09:51:33.974Z,30.52
2018-07-21T09:54:04.226Z,31.06
2018-07-21T09:56:34.251Z,31.16
2018-07-21T09:59:04.027Z,30.61
2018-07-21T10:01:34.588Z,30.99
2018-07-21T10:04:05.060Z,31.03
2018-07-21T10:06:35.152Z,31.66
2018-07-21T10:09:07.845Z,31.81
2018-07-21T10:11:37.703Z,31.30
2018-07-21T10:14:08.486Z,32.70
2018-07-21T10:16:38.341Z,31.90
2018-07-21T10:19:08.177Z,31.85
2018-07-21T10:21:39.939Z,32.93
2018-07-21T10:24:18.962Z,32.67
2018-07-21T10:26:54.768Z,32.36
2018-07-21T10:29:24.634Z,32.92
2018-07-21T10:31:54.167Z,33.24
2018-07-21T10:34:25.071Z,33.63
2018-07-21T10:36:55.435Z,33.99
2018-07-21T10:39:26.144Z,34.75
2018-07-21T10:42:00.495Z,35.47
2018-07-21T10:44:32.527Z,36.67
2018-07-21T10:47:04.526Z,36.35
2018-07-21T10:49:34.876Z,37.29
2018-07-21T10:52:05.947Z,37.51
2018-07-21T10:54:37.089Z,38.47
2018-07-21T10:57:08.205Z,39.76
2018-07-21T10:59:38.572Z,40.31
2018-07-21T11:02:09.686Z,41.31
2018-07-21T11:04:39.192Z,40.96
2018-07-21T11:07:09.013Z,41.25
2018-07-21T11:09:39.325Z,41.45
2018-07-21T11:12:09.028Z,41.19
2018-07-21T11:14:38.604Z,42.19
2018-07-21T11:17:08.654Z,42.59
2018-07-21T11:19:38.890Z,41.69
2018-07-21T11:22:09.322Z,41.88
2018-07-21T11:24:38.912Z,42.72
2018-07-21T11:27:09.024Z,42.48
2018-07-21T11:29:39.864Z,42.62
2018-07-21T11:32:09.749Z,42.04
2018-07-21T11:34:39.719Z,42.50
2018-07-21T11:37:12.982Z,42.40
2018-07-21T11:39:42.951Z,43.15
2018-07-21T11:42:13.464Z,43.49
2018-07-21T11:44:44.028Z,44.39
2018-07-21T11:47:14.566Z,45.05
2018-07-21T11:49:44.373Z,45.91
2018-07-21T11:52:14.258Z,47.06
2018-07-21T11:54:43.834Z,47.40
2018-07-21T11:57:13.725Z,46.71
2018-07-21T11:59:43.543Z,47.84
2018-07-21T12:02:14.398Z,48.99
2018-07-21T12:04:44.796Z,49.03
2018-07-21T12:07:19.461Z,49.92
2018-07-21T12:09:49.945Z,49.89
2018-07-21T12:12:21.604Z,52.02
2018-07-21T12:14:52.951Z,50.41
2018-07-21T12:17:22.396Z,51.83
2018-07-21T12:19:55.493Z,53.07
2018-07-21T12:22:25.977Z,52.24
2018-07-21T12:24:55.603Z,52.88
2018-07-21T12:27:27.957Z,52.00
2018-07-21T12:30:00.078Z,51.52
2018-07-21T12:32:30.667Z,52.13
2018-07-21T12:35:01.163Z,51.58
2018-07-21T12:37:31.407Z,52.65
2018-07-21T12:40:04.732Z,53.46
2018-07-21T12:42:34.944Z,53.75
2018-07-21T12:45:09.966Z,53.65
2018-07-21T12:47:42.783Z,54.05
2018-07-21T12:50:12.821Z,54.04
2018-07-21T12:52:45.930Z,54.85
2018-07-21T12:55:17.531Z,56.21
2018-07-21T12:57:48.043Z,57.70
2018-07-21T13:00:17.795Z,57.01
2018-07-21T13:02:49.047Z,57.46
2018-07-21T13:05:18.981Z,57.10
2018-07-21T13:07:51.289Z,57.28
2018-07-21T13:10:20.974Z,55.90
2018-07-21T13:12:51.716Z,56.42
2018-07-21T13:15:21.327Z,56.90
2018-07-21T13:17:51.484Z,57.56
2018-07-21T13:20:21.236Z,57.38
2018-07-21T13:22:51.319Z,56.99
2018-07-21T13:25:21.834Z,55.87
2018-07-21T13:27:51.760Z,55.21
2018-07-21T13:30:21.981Z,56.13
2018-07-21T13:32:51.885Z,55.78
2018-07-21T13:35:22.931Z,55.87
2018-07-21T13:37:53.367Z,56.17
2018-07-21T13:40:23.338Z,56.26
2018-07-21T13:42:53.732Z,56.05
2018-07-21T13:45:23.816Z,56.91
2018-07-21T13:47:53.480Z,57.54
2018-07-21T13:50:23.214Z,58.32
2018-07-21T13:52:53.338Z,58.52
2018-07-21T13:55:23.245Z,58.26
2018-07-21T13:57:53.535Z,58.11
2018-07-21T14:00:23.033Z,59.49
2018-07-21T14:02:53.307Z,57.23
2018-07-21T14:05:24.288Z,57.03
2018-07-21T14:07:54.690Z,59.15
2018-07-21T14:10:24.271Z,59.84
2018-07-21T14:12:54.742Z,58.50
2018-07-21T14:15:25.054Z,58.30
2018-07-21T14:17:54.948Z,58.83
2018-07-21T14:20:24.934Z,59.57
2018-07-21T14:22:54.487Z,57.85
2018-07-21T14:25:24.331Z,57.82
2018-07-21T14:27:54.123Z,58.77
2018-07-21T14:30:24.486Z,59.14
2018-07-21T14:32:54.587Z,59.49
2018-07-21T14:35:24.800Z,59.32
2018-07-21T14:37:56.598Z,60.19
2018-07-21T14:40:30.670Z,59.09
2018-07-21T14:43:01.339Z,57.91
2018-07-21T14:45:33.095Z,58.99
2018-07-21T14:48:09.600Z,59.83
2018-07-21T14:50:43.847Z,59.66
2018-07-21T14:53:22.416Z,59.40
2018-07-21T14:55:59.375Z,59.01
2018-07-21T14:58:29.955Z,58.91
2018-07-21T15:01:07.212Z,59.10
2018-07-21T15:03:50.672Z,59.47
2018-07-21T15:06:24.646Z,59.55
2018-07-21T15:09:01.508Z,58.61
2018-07-21T15:11:44.911Z,58.39
2018-07-21T15:14:24.497Z,58.39
2018-07-21T15:16:59.546Z,58.87
2018-07-21T15:19:30.227Z,58.92
2018-07-21T15:22:21.495Z,59.10
2018-07-21T15:24:58.008Z,59.33
2018-07-21T15:27:33.950Z,59.75
2018-07-21T15:30:12.059Z,59.43
2018-07-21T15:32:47.512Z,61.18
2018-07-21T15:35:34.478Z,59.90
2018-07-21T15:38:06.777Z,60.19
2018-07-21T15:40:37.164Z,60.24
2018-07-21T15:43:08.300Z,60.46
2018-07-21T15:45:42.036Z,60.15
2018-07-21T15:48:12.331Z,60.67
2018-07-21T15:50:45.897Z,62.79
2018-07-21T15:53:19.565Z,62.79
2018-07-21T15:55:54.174Z,63.18
2018-07-21T15:58:26.324Z,64.20
2018-07-21T16:01:00.835Z,65.40
2018-07-21T16:03:38.546Z,64.33
2018-07-21T16:06:15.107Z,65.05
2018-07-21T16:08:45.916Z,65.05
2018-07-21T16:11:24.998Z,64.63
2018-07-21T16:14:00.766Z,65.42
2018-07-21T16:16:32.911Z,64.65
2018-07-21T16:19:12.478Z,65.14
2018-07-21T16:21:43.647Z,64.73
2018-07-21T16:24:14.490Z,64.75
2018-07-21T16:26:52.387Z,63.25
2018-07-21T16:29:27.993Z,64.65
2018-07-21T16:32:01.065Z,65.57
2018-07-21T16:34:35.460Z,65.47
2018-07-21T16:37:20.184Z,65.63
2018-07-21T16:39:55.627Z,67.68
2018-07-21T16:43:30.882Z,67.86
2018-07-21T16:46:06.412Z,67.01
2018-07-21T16:48:37.907Z,66.19
2018-07-21T16:51:12.709Z,66.60
2018-07-21T16:53:45.627Z,67.13
2018-07-21T16:56:20.862Z,67.72
2018-07-21T16:58:50.782Z,66.84
2018-07-21T17:01:22.695Z,66.95
2018-07-21T17:03:58.610Z,67.77
2018-07-21T17:06:33.222Z,68.02
2018-07-21T17:09:03.868Z,67.28
2018-07-21T17:11:34.789Z,68.79
2018-07-21T17:14:04.949Z,68.93
2018-07-21T17:16:34.828Z,69.78
2018-07-21T17:19:05.631Z,69.83
2018-07-21T17:21:35.758Z,70.15
2018-07-21T17:24:05.875Z,70.77
2018-07-21T17:26:35.520Z,71.03
2018-07-21T17:29:05.144Z,70.75
2018-07-21T17:31:34.607Z,70.29
2018-07-21T17:34:04.887Z,70.73
2018-07-21T17:36:35.677Z,70.51
2018-07-21T17:39:08.002Z,71.67
2018-07-21T17:41:37.839Z,71.92
2018-07-21T17:44:08.828Z,71.58
2018-07-21T17:46:38.744Z,72.29
2018-07-21T17:49:08.700Z,72.41
2018-07-21T17:51:38.808Z,72.69
2018-07-21T17:54:08.675Z,72.27
2018-07-21T17:56:39.555Z,72.27
2018-07-21T17:59:09.720Z,73.39
2018-07-21T18:01:39.790Z,72.33
2018-07-21T18:04:09.348Z,72.06
2018-07-21T18:06:39.285Z,72.39
2018-07-21T18:09:13.842Z,72.52
2018-07-21T18:11:44.153Z,71.31
2018-07-21T18:14:15.092Z,71.63
2018-07-21T18:16:45.541Z,71.56
2018-07-21T18:19:17.274Z,71.43
2018-07-21T18:21:48.409Z,71.32
2018-07-21T18:24:19.718Z,71.72
2018-07-21T18:26:53.629Z,71.48
2018-07-21T18:29:26.665Z,71.31
2018-07-21T18:32:00.187Z,71.64
2018-07-21T18:34:38.647Z,71.40
2018-07-21T18:37:09.324Z,72.20
2018-07-21T18:39:50.519Z,72.80
2018-07-21T18:42:27.782Z,73.18
2018-07-21T18:45:00.550Z,72.77
2018-07-21T18:47:32.196Z,73.33
2018-07-21T18:50:02.763Z,73.00
2018-07-21T18:52:32.448Z,73.60
2018-07-21T18:55:03.076Z,73.44
2018-07-21T18:57:34.423Z,73.32
2018-07-21T19:00:06.494Z,72.94
2018-07-21T19:02:37.047Z,73.59
2018-07-21T19:05:09.054Z,74.15
2018-07-21T19:07:40.502Z,73.63
2018-07-21T19:10:12.591Z,74.39
2018-07-21T19:12:47.532Z,75.10
2018-07-21T19:17:24.931Z,75.57
2018-07-21T19:20:03.582Z,75.44
2018-07-21T19:22:36.699Z,75.38
2018-07-21T19:25:14.084Z,75.49
2018-07-21T19:27:43.961Z,75.04
2018-07-21T19:30:14.620Z,75.88
2018-07-21T19:32:51.792Z,75.68
2018-07-21T19:35:28.645Z,75.93
2018-07-21T19:38:00.480Z,75.61
2018-07-21T19:40:31.511Z,74.50
2018-07-21T19:43:05.190Z,75.21
2018-07-21T19:45:36.109Z,74.43
2018-07-21T19:48:07.011Z,74.23
2018-07-21T19:50:36.993Z,73.99
2018-07-21T19:53:07.497Z,73.95
2018-07-21T19:55:39.868Z,73.15
2018-07-21T19:58:11.083Z,72.89
2018-07-21T20:00:41.320Z,72.87
2018-07-21T20:03:11.132Z,73.61
2018-07-21T20:05:41.033Z,74.20
2018-07-21T20:08:12.115Z,74.50
2018-07-21T20:10:42.037Z,73.88
2018-07-21T20:13:12.327Z,74.50
2018-07-21T20:15:42.604Z,75.14
2018-07-21T20:18:15.239Z,74.96
2018-07-21T20:20:46.006Z,76.24
2018-07-21T20:23:17.233Z,76.33
2018-07-21T20:25:47.887Z,76.34
2018-07-21T20:28:19.550Z,76.09
2018-07-21T20:30:49.772Z,76.58
2018-07-21T20:33:21.181Z,76.67
2018-07-21T20:35:51.969Z,76.59
2018-07-21T20:38:24.268Z,77.27
2018-07-21T20:40:54.301Z,76.55
2018-07-21T20:43:24.885Z,77.19
2018-07-21T20:45:57.037Z,77.07
2018-07-21T20:48:26.976Z,77.30
2018-07-21T20:50:56.732Z,77.21
2018-07-21T20:53:27.703Z,77.62
2018-07-21T20:55:57.408Z,78.19
2018-07-21T20:58:27.781Z,78.58
2018-07-21T21:00:58.657Z,78.34
2018-07-21T21:03:28.923Z,78.47
2018-07-21T21:05:59.423Z,78.43
2018-07-21T21:08:29.744Z,78.70
2018-07-21T21:11:01.799Z,78.31
2018-07-21T21:13:39.118Z,78.30
2018-07-21T21:16:12.593Z,78.76
2018-07-21T21:18:43.973Z,78.82
2018-07-21T21:24:34.843Z,78.04
2018-07-21T21:27:05.506Z,77.98
2018-07-21T21:29:35.666Z,78.11
2018-07-21T21:32:06.559Z,78.77
2018-07-21T21:34:36.935Z,79.44
2018-07-21T21:37:06.980Z,78.35
2018-07-21T21:39:37.648Z,79.23
2018-07-21T21:42:09.575Z,80.49
2018-07-21T21:44:40.237Z,81.44
2018-07-21T21:47:10.130Z,81.05
2018-07-21T21:49:39.960Z,80.77
2018-07-21T21:52:09.775Z,80.67
2018-07-21T21:54:39.966Z,80.34
2018-07-21T21:57:09.941Z,81.36
2018-07-21T21:59:39.827Z,81.58
2018-07-21T22:02:11.432Z,81.58
2018-07-21T22:04:41.529Z,81.94
2018-07-21T22:07:12.703Z,81.78
2018-07-21T22:09:42.383Z,82.31
2018-07-21T22:12:13.209Z,82.58
2018-07-21T22:14:43.354Z,81.75
2018-07-21T22:17:14.053Z,82.40
2018-07-21T22:19:49.429Z,82.07
2018-07-21T22:22:20.082Z,82.10
2018-07-21T22:24:49.887Z,82.01
2018-07-21T22:27:20.759Z,80.86
2018-07-21T22:29:50.643Z,81.99
2018-07-21T22:32:20.414Z,81.42
2018-07-21T22:34:51.830Z,80.74
2018-07-21T22:37:22.205Z,81.46
2018-07-21T22:39:54.003Z,81.02
2018-07-21T22:42:25.015Z,80.48
2018-07-21T22:44:55.897Z,80.06
2018-07-21T22:47:25.564Z,79.39
2018-07-21T22:49:55.321Z,79.61
2018-07-21T22:52:25.670Z,78.72
2018-07-21T22:54:55.683Z,79.39
2018-07-21T22:57:25.845Z,79.00
2018-07-21T22:59:55.979Z,79.51
2018-07-21T23:02:25.609Z,78.86
2018-07-21T23:04:56.381Z,79.22
2018-07-21T23:07:35.127Z,78.57
2018-07-21T23:10:04.962Z,78.33
2018-07-21T23:12:34.837Z,77.59
2018-07-21T23:15:05.120Z,76.74
2018-07-21T23:17:35.975Z,76.02
2018-07-21T23:20:07.343Z,76.35
2018-07-21T23:22:37.728Z,75.21
2018-07-21T23:25:07.829Z,75.28
2018-07-21T23:27:38.606Z,74.57
2018-07-21T23:30:08.257Z,75.32
2018-07-21T23:32:38.626Z,75.04
2018-07-21T23:35:08.635Z,75.15
2018-07-21T23:37:38.634Z,74.83
2018-07-21T23:40:08.793Z,74.70
2018-07-21T23:42:39.665Z,75.41
2018-07-21T23:45:09.471Z,75.27
2018-07-21T23:47:39.936Z,75.09
2018-07-21T23:50:10.218Z,74.99
2018-07-21T23:52:40.290Z,76.36
2018-07-21T23:55:10.254Z,76.13
2018-07-21T23:57:40.406Z,76.48
